Capitol Logistics 317


KPDX
Portland International Airport
Portland, Oregon, US
KPHX
Phoenix Sky Harbor International Airport
Phoenix, Arizona, US

Route Details

Aircraft Information
Primary: Boeing 767-300BDSF
Backup: Not Available
Route Data
Distance: 878nm
Sched. Duration: 2h 00m
Avg. Duration: 2h 25m (+25m)
Times Flown: 5
Recm'd Route: BTG J159 DSD REO J523 ELY WINEN Q35 CORKR TENTS BRUSR1
Planned Altitude: 37,000ft
Origin Wx: KPDX 251253Z 09016G24KT 10SM CLR 04/M08 A3044 RMK AO2 PK WND 08028/1217 SLP308 T00391083
Dest. Wx: KPHX 251251Z 09007KT 10SM BKN180 BKN200 21/07 A2978 RMK AO2 SLP069 T02060067 $
Notes:

Financial History
Total Freight: 394,167lbs
Average Load: 78,833lbs/flt
Fuel Used: 120,351lbs
Avg. Fuel Used: 24,070lbs/flt
Fuel Expense: $104,705
Avg. Fuel Expense: $20,941
Avg. Fuel Cost: $0.87/lbs
Total Gross Income: $535,904
Pilot Pay: $875
Total Expenses: $58,138
Total Revenue: $370,270
Average Revenue: $107,180.85